createdAt,value
2022-10-07T00:00:49.605Z,11.94
2022-10-07T00:02:52.423Z,11.96
2022-10-07T00:04:55.243Z,11.99
2022-10-07T00:06:59.392Z,12.01
2022-10-07T00:09:02.558Z,12.01
2022-10-07T00:11:10.247Z,12.07
2022-10-07T00:13:12.959Z,12.02
2022-10-07T00:15:15.747Z,12.01
2022-10-07T00:17:18.600Z,12.02
2022-10-07T00:19:21.367Z,12.01
2022-10-07T00:21:25.297Z,12.01
2022-10-07T00:23:29.388Z,11.98
2022-10-07T00:25:32.270Z,11.97
2022-10-07T00:27:35.080Z,11.97
2022-10-07T00:29:37.879Z,11.98
2022-10-07T00:31:41.633Z,12.02
2022-10-07T00:33:44.616Z,12.00
2022-10-07T00:35:47.312Z,12.01
2022-10-07T00:37:50.116Z,11.96
2022-10-07T00:39:55.485Z,11.96
2022-10-07T00:41:58.324Z,11.96
2022-10-07T00:44:01.544Z,11.97
2022-10-07T00:46:08.918Z,12.01
2022-10-07T00:48:13.050Z,12.00
2022-10-07T00:50:19.588Z,11.97
2022-10-07T00:52:25.872Z,11.97
2022-10-07T00:54:28.732Z,11.95
2022-10-07T00:56:34.961Z,11.87
2022-10-07T00:58:41.173Z,11.84
2022-10-07T01:00:44.088Z,11.80
2022-10-07T01:02:48.608Z,11.80
2022-10-07T01:04:53.614Z,11.83
2022-10-07T01:06:56.942Z,11.83
2022-10-07T01:08:59.763Z,11.83
2022-10-07T01:11:18.192Z,11.80
2022-10-07T01:13:32.040Z,11.69
2022-10-07T01:15:40.343Z,11.68
2022-10-07T01:17:53.232Z,11.69
2022-10-07T01:20:19.752Z,11.60
2022-10-07T01:22:31.016Z,11.53
2022-10-07T01:24:42.304Z,11.53
2022-10-07T01:27:01.165Z,11.51
2022-10-07T01:29:10.480Z,11.44
2022-10-07T01:31:17.102Z,11.38
2022-10-07T01:33:27.829Z,11.41
2022-10-07T01:35:35.203Z,11.35
2022-10-07T01:37:42.598Z,11.31
2022-10-07T01:39:51.057Z,11.30
2022-10-07T01:41:55.638Z,11.32
2022-10-07T01:44:01.699Z,11.37
2022-10-07T01:46:07.705Z,11.33
2022-10-07T01:48:11.700Z,11.29
2022-10-07T01:50:16.452Z,11.32
2022-10-07T01:52:41.118Z,11.38
2022-10-07T01:55:02.700Z,11.41
2022-10-07T01:57:19.438Z,11.44
2022-10-07T01:59:43.742Z,11.45
2022-10-07T02:01:54.492Z,11.42
2022-10-07T02:04:25.451Z,11.35
2022-10-07T02:06:39.272Z,11.28
2022-10-07T02:08:47.174Z,11.23
2022-10-07T02:11:02.583Z,11.18
2022-10-07T02:13:12.424Z,11.21
2022-10-07T02:15:24.647Z,11.15
2022-10-07T02:17:32.128Z,11.13
2022-10-07T02:19:39.250Z,11.12
2022-10-07T02:21:46.077Z,11.15
2022-10-07T02:23:50.241Z,11.18
2022-10-07T02:25:54.891Z,11.21
2022-10-07T02:27:58.749Z,11.26
2022-10-07T02:30:08.352Z,11.36
2022-10-07T02:32:14.338Z,11.48
2022-10-07T02:34:20.709Z,11.55
2022-10-07T02:36:28.869Z,11.61
2022-10-07T02:38:32.109Z,11.58
2022-10-07T02:40:38.201Z,11.64
2022-10-07T02:42:53.799Z,11.66
2022-10-07T02:45:02.193Z,11.64
2022-10-07T02:47:14.145Z,11.58
2022-10-07T02:49:18.841Z,11.58
2022-10-07T02:51:26.694Z,11.62
2022-10-07T02:53:32.114Z,11.57
2022-10-07T02:55:36.017Z,11.58
2022-10-07T02:57:42.324Z,11.57
2022-10-07T02:59:48.283Z,11.60
2022-10-07T03:01:56.708Z,11.60
2022-10-07T03:04:01.077Z,11.63
2022-10-07T03:06:04.745Z,11.54
2022-10-07T03:08:11.168Z,11.44
2022-10-07T03:10:17.233Z,11.46
2022-10-07T03:12:20.005Z,11.48
2022-10-07T03:14:24.612Z,11.48
2022-10-07T03:16:27.487Z,11.46
2022-10-07T03:18:30.347Z,11.50
2022-10-07T03:20:53.438Z,11.43
2022-10-07T03:22:56.722Z,11.43
2022-10-07T03:24:59.532Z,11.45
2022-10-07T03:27:02.393Z,11.45
2022-10-07T03:29:05.918Z,11.42
2022-10-07T03:31:11.655Z,11.33
2022-10-07T03:33:21.249Z,11.32
2022-10-07T03:35:24.426Z,11.34
2022-10-07T03:37:30.880Z,11.36
2022-10-07T03:39:35.279Z,11.38
2022-10-07T03:41:39.389Z,11.33
2022-10-07T03:43:42.123Z,11.32
2022-10-07T03:45:50.211Z,11.33
2022-10-07T03:47:53.120Z,11.32
2022-10-07T03:49:56.681Z,11.29
2022-10-07T03:52:00.482Z,11.30
2022-10-07T03:54:05.138Z,11.30
2022-10-07T03:56:09.399Z,11.35
2022-10-07T03:58:13.657Z,11.32
2022-10-07T04:00:17.160Z,11.27
2022-10-07T04:02:26.586Z,11.28
2022-10-07T04:04:30.931Z,11.35
2022-10-07T04:06:34.822Z,11.31
2022-10-07T04:08:43.561Z,11.28
2022-10-07T04:10:47.736Z,11.20
2022-10-07T04:12:51.323Z,11.17
2022-10-07T04:14:54.456Z,11.23
2022-10-07T04:16:57.321Z,11.21
2022-10-07T04:19:00.198Z,11.21
2022-10-07T04:21:05.125Z,11.15
2022-10-07T04:23:09.467Z,11.17
2022-10-07T04:25:30.312Z,11.16
2022-10-07T04:27:51.074Z,11.14
2022-10-07T04:29:55.285Z,11.11
2022-10-07T04:31:58.747Z,11.15
2022-10-07T04:34:01.774Z,11.12
2022-10-07T04:36:11.179Z,11.14
2022-10-07T04:38:24.222Z,11.18
2022-10-07T04:40:29.266Z,11.23
2022-10-07T04:42:49.618Z,11.14
2022-10-07T04:44:54.407Z,11.12
2022-10-07T04:46:57.299Z,11.07
2022-10-07T04:49:02.948Z,11.04
2022-10-07T04:51:09.034Z,11.05
2022-10-07T04:53:15.167Z,11.07
2022-10-07T04:55:19.278Z,10.99
2022-10-07T04:57:22.145Z,10.99
2022-10-07T04:59:28.012Z,10.99
2022-10-07T05:01:34.283Z,10.92
2022-10-07T05:03:39.666Z,10.92
2022-10-07T05:05:44.260Z,10.94
2022-10-07T05:07:50.978Z,10.90
2022-10-07T05:09:54.869Z,10.87
2022-10-07T05:11:57.643Z,10.85
2022-10-07T05:14:02.095Z,10.96
2022-10-07T05:16:09.339Z,10.98
2022-10-07T05:18:14.431Z,10.95
2022-10-07T05:20:17.305Z,10.94
2022-10-07T05:22:22.108Z,10.98
2022-10-07T05:24:24.969Z,10.95
2022-10-07T05:26:27.796Z,10.99
2022-10-07T05:28:34.337Z,10.99
2022-10-07T05:30:37.402Z,10.99
2022-10-07T05:32:40.382Z,10.92
2022-10-07T05:34:45.202Z,10.93
2022-10-07T05:36:48.087Z,10.82
2022-10-07T05:38:50.889Z,10.76
2022-10-07T05:40:59.594Z,10.67
2022-10-07T05:43:04.198Z,10.68
2022-10-07T05:45:08.956Z,10.70
2022-10-07T05:47:11.847Z,10.71
2022-10-07T05:49:15.601Z,10.77
2022-10-07T05:51:20.337Z,10.78
2022-10-07T05:53:23.300Z,10.76
2022-10-07T05:55:26.229Z,10.72
2022-10-07T05:57:29.012Z,10.78
2022-10-07T05:59:32.085Z,10.89
2022-10-07T06:01:35.778Z,10.87
2022-10-07T06:03:45.773Z,10.81
2022-10-07T06:05:50.573Z,10.90
2022-10-07T06:07:54.799Z,10.72
2022-10-07T06:10:15.489Z,10.72
2022-10-07T06:12:35.938Z,10.76
2022-10-07T06:14:43.536Z,10.72
2022-10-07T06:16:47.066Z,10.69
2022-10-07T06:18:50.487Z,10.68
2022-10-07T06:20:55.592Z,10.69
2022-10-07T06:23:00.790Z,10.72
2022-10-07T06:25:04.555Z,10.63
2022-10-07T06:27:15.583Z,10.70
2022-10-07T06:29:19.684Z,10.79
2022-10-07T06:31:25.517Z,10.86
2022-10-07T06:33:33.772Z,10.83
2022-10-07T06:35:36.951Z,10.82
2022-10-07T06:37:40.199Z,10.80
2022-10-07T06:39:46.215Z,10.87
2022-10-07T06:41:48.999Z,10.82
2022-10-07T06:44:01.615Z,10.95
2022-10-07T06:46:06.400Z,10.95
2022-10-07T06:48:10.021Z,10.99
2022-10-07T06:50:12.795Z,10.97
2022-10-07T06:52:15.904Z,10.97
2022-10-07T06:54:18.935Z,10.98
2022-10-07T06:56:23.098Z,10.98
2022-10-07T06:58:26.476Z,11.01
2022-10-07T07:00:30.421Z,11.09
2022-10-07T07:02:34.329Z,11.13
2022-10-07T07:04:37.512Z,11.18
2022-10-07T07:06:40.419Z,11.22
2022-10-07T07:08:45.842Z,11.23
2022-10-07T07:10:49.589Z,11.23
2022-10-07T07:12:55.785Z,11.24
2022-10-07T07:15:00.210Z,11.29
2022-10-07T07:17:03.214Z,11.28
2022-10-07T07:19:08.687Z,11.24
2022-10-07T07:21:12.625Z,11.28
2022-10-07T07:23:17.817Z,11.34
2022-10-07T07:25:20.794Z,11.41
2022-10-07T07:27:23.822Z,11.31
2022-10-07T07:29:28.093Z,11.32
2022-10-07T07:31:36.599Z,11.38
2022-10-07T07:33:41.184Z,11.34
2022-10-07T07:35:44.905Z,11.26
2022-10-07T07:37:48.325Z,11.32
2022-10-07T07:39:52.839Z,11.32
2022-10-07T07:41:56.002Z,11.36
2022-10-07T07:44:02.846Z,11.45
2022-10-07T07:46:08.040Z,11.39
2022-10-07T07:48:12.948Z,11.48
2022-10-07T07:50:18.435Z,11.62
2022-10-07T07:52:21.278Z,11.48
2022-10-07T07:54:25.409Z,11.67
2022-10-07T07:56:31.776Z,11.67
2022-10-07T07:58:35.637Z,11.62
2022-10-07T08:00:38.441Z,11.69
2022-10-07T08:02:44.308Z,11.72
2022-10-07T08:04:53.808Z,11.73
2022-10-07T08:06:57.657Z,11.66
2022-10-07T08:09:00.996Z,11.66
2022-10-07T08:11:08.763Z,11.73
2022-10-07T08:13:11.662Z,11.70
2022-10-07T08:15:15.978Z,11.70
2022-10-07T08:17:19.142Z,11.80
2022-10-07T08:19:23.964Z,11.75
2022-10-07T08:21:27.752Z,11.69
2022-10-07T08:23:35.116Z,11.75
2022-10-07T08:25:38.028Z,11.91
2022-10-07T08:27:43.043Z,11.84
2022-10-07T08:29:47.907Z,11.96
2022-10-07T08:31:52.773Z,11.95
2022-10-07T08:33:56.205Z,11.97
2022-10-07T08:36:01.589Z,11.95
2022-10-07T08:38:04.683Z,12.04
2022-10-07T08:40:08.843Z,12.04
2022-10-07T08:42:17.809Z,12.15
2022-10-07T08:44:27.269Z,12.22
2022-10-07T08:46:33.974Z,12.29
2022-10-07T08:48:39.684Z,12.33
2022-10-07T08:50:50.474Z,12.36
2022-10-07T08:52:59.247Z,12.41
2022-10-07T08:55:02.502Z,12.49
2022-10-07T08:57:15.345Z,12.57
2022-10-07T08:59:22.876Z,12.55
2022-10-07T09:01:36.912Z,12.55
2022-10-07T09:03:50.012Z,12.55
2022-10-07T09:05:55.573Z,12.64
2022-10-07T09:08:03.942Z,12.65
2022-10-07T09:10:24.253Z,12.59
2022-10-07T09:12:36.733Z,12.72
2022-10-07T09:14:43.591Z,12.72
2022-10-07T09:16:48.518Z,12.83
2022-10-07T09:18:54.125Z,12.86
2022-10-07T09:20:57.753Z,12.90
2022-10-07T09:23:03.854Z,12.98
2022-10-07T09:25:20.153Z,13.10
2022-10-07T09:27:23.033Z,13.10
2022-10-07T09:29:27.625Z,13.16
2022-10-07T09:31:31.882Z,13.23
2022-10-07T09:33:41.000Z,13.26
2022-10-07T09:35:57.373Z,13.42
2022-10-07T09:38:03.729Z,13.48
2022-10-07T09:40:23.776Z,13.47
2022-10-07T09:42:32.181Z,13.55
2022-10-07T09:44:35.657Z,13.60
2022-10-07T09:46:48.187Z,13.69
2022-10-07T09:48:53.745Z,13.75
2022-10-07T09:51:15.363Z,13.69
2022-10-07T09:53:21.815Z,13.78
2022-10-07T09:55:37.583Z,13.83
2022-10-07T09:57:42.211Z,13.83
2022-10-07T09:59:45.545Z,13.88
2022-10-07T10:01:53.727Z,13.89
2022-10-07T10:04:00.230Z,13.89
2022-10-07T10:06:05.151Z,14.01
2022-10-07T10:08:23.741Z,14.02
2022-10-07T10:10:28.964Z,14.04
2022-10-07T10:12:37.100Z,14.15
2022-10-07T10:14:46.859Z,14.36
2022-10-07T10:16:49.712Z,14.51
2022-10-07T10:18:55.222Z,14.48
2022-10-07T10:21:14.368Z,14.56
2022-10-07T10:23:29.458Z,14.68
2022-10-07T10:25:58.175Z,14.60
2022-10-07T10:28:07.814Z,14.63
2022-10-07T10:30:19.371Z,14.88
2022-10-07T10:32:36.882Z,14.92
2022-10-07T10:34:51.133Z,14.89
2022-10-07T10:37:01.141Z,14.96
2022-10-07T10:39:24.431Z,14.98
2022-10-07T10:41:36.473Z,15.01
2022-10-07T10:44:01.764Z,15.17
2022-10-07T10:46:22.333Z,15.19
2022-10-07T10:48:30.337Z,15.17
2022-10-07T10:50:43.574Z,15.22
2022-10-07T10:52:59.564Z,15.26
2022-10-07T10:55:19.150Z,15.39
2022-10-07T10:57:34.744Z,15.50
2022-10-07T10:59:52.300Z,15.59
2022-10-07T11:02:04.148Z,15.67
2022-10-07T11:04:40.653Z,15.84
2022-10-07T11:06:47.770Z,15.89
2022-10-07T11:08:52.684Z,15.77
2022-10-07T11:10:59.415Z,15.76
2022-10-07T11:13:18.063Z,15.78
2022-10-07T11:15:24.457Z,15.85
2022-10-07T11:17:31.902Z,15.92
2022-10-07T11:19:39.256Z,15.86
2022-10-07T11:21:45.965Z,15.99
2022-10-07T11:23:55.854Z,16.04
2022-10-07T11:26:06.433Z,16.09
2022-10-07T11:28:17.584Z,16.10
2022-10-07T11:30:23.242Z,16.12
2022-10-07T11:32:32.061Z,16.13
2022-10-07T11:34:42.932Z,16.20
2022-10-07T11:36:54.540Z,16.30
2022-10-07T11:38:57.553Z,16.43
2022-10-07T11:41:07.365Z,16.56
2022-10-07T11:43:20.372Z,16.68
2022-10-07T11:45:27.737Z,16.73
2022-10-07T11:47:35.671Z,16.84
2022-10-07T11:49:43.221Z,16.90
2022-10-07T11:51:54.962Z,16.85
2022-10-07T11:54:02.911Z,16.78
2022-10-07T11:56:19.170Z,16.81
2022-10-07T11:58:26.296Z,16.88
2022-10-07T12:00:32.339Z,17.02
2022-10-07T12:02:44.862Z,17.04
2022-10-07T12:04:48.138Z,17.00
2022-10-07T12:07:28.401Z,17.01
2022-10-07T12:09:53.508Z,17.13
2022-10-07T12:11:58.049Z,17.18
2022-10-07T12:14:31.692Z,17.18
2022-10-07T12:16:55.190Z,17.26
2022-10-07T12:19:18.797Z,17.39
2022-10-07T12:21:23.832Z,17.37
2022-10-07T12:23:43.853Z,17.37
2022-10-07T12:25:59.449Z,17.50
2022-10-07T12:28:02.445Z,17.45
2022-10-07T12:30:29.747Z,17.50
2022-10-07T12:32:57.527Z,17.40
2022-10-07T12:35:35.961Z,17.36
2022-10-07T12:37:50.244Z,17.50
2022-10-07T12:39:53.283Z,17.44
2022-10-07T12:41:58.884Z,17.39
2022-10-07T12:44:12.565Z,17.35
2022-10-07T12:46:21.019Z,17.36
2022-10-07T12:48:25.933Z,17.49
2022-10-07T12:50:33.468Z,17.56
2022-10-07T12:52:44.017Z,17.65
2022-10-07T12:54:51.926Z,17.71
2022-10-07T12:56:55.000Z,17.76
2022-10-07T12:59:45.066Z,17.86
2022-10-07T13:02:12.454Z,17.87
2022-10-07T13:04:29.470Z,17.94
2022-10-07T13:07:14.396Z,17.92
2022-10-07T13:09:48.568Z,17.93
2022-10-07T13:12:14.344Z,17.90
2022-10-07T13:14:22.901Z,17.87
2022-10-07T13:16:33.973Z,17.94
2022-10-07T13:18:44.308Z,18.03
2022-10-07T13:21:06.164Z,18.06
2022-10-07T13:23:16.198Z,18.02
2022-10-07T13:25:21.202Z,17.93
2022-10-07T13:27:27.685Z,17.82
2022-10-07T13:29:33.228Z,17.85
2022-10-07T13:31:36.429Z,17.84
2022-10-07T13:33:42.046Z,17.91
2022-10-07T13:35:44.898Z,17.87
2022-10-07T13:37:48.627Z,17.93
2022-10-07T13:39:51.396Z,17.92
2022-10-07T13:41:56.656Z,17.95
2022-10-07T13:44:01.432Z,17.85
2022-10-07T13:46:09.123Z,17.86
2022-10-07T13:48:16.094Z,17.70
2022-10-07T13:50:23.511Z,17.76
2022-10-07T13:52:32.783Z,17.80
2022-10-07T13:54:35.715Z,17.80
2022-10-07T13:56:40.769Z,17.84
2022-10-07T13:58:43.795Z,17.91
2022-10-07T14:00:48.854Z,17.94
2022-10-07T14:02:52.277Z,17.96
2022-10-07T14:05:01.400Z,17.98
2022-10-07T14:07:17.801Z,17.96
2022-10-07T14:09:24.310Z,18.00
2022-10-07T14:11:27.239Z,18.05
2022-10-07T14:13:31.638Z,18.07
2022-10-07T14:15:38.014Z,18.08
2022-10-07T14:17:47.144Z,18.10
2022-10-07T14:19:53.289Z,18.06
2022-10-07T14:21:56.117Z,18.06
2022-10-07T14:24:09.680Z,18.03
2022-10-07T14:26:14.474Z,18.01
2022-10-07T14:28:19.594Z,17.99
2022-10-07T14:30:56.108Z,17.97
2022-10-07T14:33:32.420Z,17.94
2022-10-07T14:35:36.981Z,17.92
2022-10-07T14:37:39.796Z,17.83
2022-10-07T14:39:47.561Z,17.87
2022-10-07T14:41:51.139Z,17.82
2022-10-07T14:43:53.973Z,17.82
2022-10-07T14:45:57.244Z,17.90
2022-10-07T14:48:00.040Z,17.83
2022-10-07T14:50:02.804Z,17.83
2022-10-07T14:52:06.142Z,17.83
2022-10-07T14:54:09.007Z,17.86
2022-10-07T14:56:16.224Z,17.88
2022-10-07T14:58:18.964Z,17.87
2022-10-07T15:00:23.450Z,17.85
2022-10-07T15:02:26.505Z,17.82
2022-10-07T15:04:29.623Z,17.84
2022-10-07T15:06:32.518Z,17.90
2022-10-07T15:08:35.323Z,17.85
2022-10-07T15:10:41.048Z,17.82
2022-10-07T15:12:45.479Z,17.76
2022-10-07T15:14:48.306Z,17.60
2022-10-07T15:16:51.287Z,17.59
2022-10-07T15:18:54.459Z,17.65
2022-10-07T15:20:57.957Z,17.60
2022-10-07T15:23:02.521Z,17.56
2022-10-07T15:25:05.542Z,17.43
2022-10-07T15:27:09.760Z,17.47
2022-10-07T15:29:15.125Z,17.53
2022-10-07T15:31:18.469Z,17.58
2022-10-07T15:33:21.258Z,17.66
2022-10-07T15:35:24.606Z,17.58
2022-10-07T15:37:27.645Z,17.59
2022-10-07T15:39:30.417Z,17.59
2022-10-07T15:41:35.483Z,17.64
2022-10-07T15:43:38.447Z,17.66
2022-10-07T15:45:45.696Z,17.68
2022-10-07T15:47:50.364Z,17.67
2022-10-07T15:49:53.106Z,17.63
2022-10-07T15:51:56.112Z,17.65
2022-10-07T15:53:59.447Z,17.65
2022-10-07T15:56:02.213Z,17.66
2022-10-07T15:58:04.938Z,17.65
2022-10-07T16:00:09.508Z,17.64
2022-10-07T16:02:18.775Z,17.65
2022-10-07T16:04:21.726Z,17.64
2022-10-07T16:06:26.552Z,17.63
2022-10-07T16:08:31.046Z,17.63
2022-10-07T16:10:37.373Z,17.63
2022-10-07T16:12:40.243Z,17.59
2022-10-07T16:14:43.066Z,17.55
2022-10-07T16:16:46.188Z,17.52
2022-10-07T16:18:51.859Z,17.51
2022-10-07T16:20:54.650Z,17.51
2022-10-07T16:22:57.751Z,17.47
2022-10-07T16:25:00.696Z,17.44
2022-10-07T16:27:03.638Z,17.41
2022-10-07T16:29:25.873Z,17.38
2022-10-07T16:31:29.486Z,17.30
2022-10-07T16:33:32.290Z,17.27
2022-10-07T16:35:36.425Z,17.22
2022-10-07T16:37:39.218Z,17.16
2022-10-07T16:39:42.121Z,17.14
2022-10-07T16:41:46.227Z,17.09
2022-10-07T16:43:49.897Z,17.04
2022-10-07T16:45:52.711Z,17.00
2022-10-07T16:47:56.263Z,16.97
2022-10-07T16:49:59.012Z,16.93
2022-10-07T16:52:03.123Z,16.90
2022-10-07T16:54:08.093Z,16.85
2022-10-07T16:56:10.862Z,16.81
2022-10-07T16:58:13.710Z,16.78
2022-10-07T17:00:16.834Z,16.78
2022-10-07T17:02:19.941Z,16.73
2022-10-07T17:04:23.044Z,16.70
2022-10-07T17:06:26.872Z,16.65
2022-10-07T17:08:36.386Z,16.63
2022-10-07T17:10:42.385Z,16.58
2022-10-07T17:12:45.791Z,16.55
2022-10-07T17:14:48.530Z,16.52
2022-10-07T17:16:53.714Z,16.50
2022-10-07T17:18:57.211Z,16.46
2022-10-07T17:21:00.846Z,16.45
2022-10-07T17:23:03.986Z,16.44
2022-10-07T17:25:08.833Z,16.41
2022-10-07T17:27:11.712Z,16.37
2022-10-07T17:29:18.046Z,16.38
2022-10-07T17:31:20.853Z,16.36
2022-10-07T17:33:23.637Z,16.35
2022-10-07T17:35:28.168Z,16.33
2022-10-07T17:37:30.952Z,16.29
2022-10-07T17:39:33.715Z,16.24
2022-10-07T17:41:39.461Z,16.24
2022-10-07T17:43:42.477Z,16.21
2022-10-07T17:45:45.239Z,16.18
2022-10-07T17:47:48.712Z,16.15
2022-10-07T17:49:53.418Z,16.12
2022-10-07T17:51:57.188Z,16.10
2022-10-07T17:54:01.468Z,16.07
2022-10-07T17:56:04.855Z,16.03
2022-10-07T17:58:09.000Z,16.03
2022-10-07T18:00:12.570Z,15.99
2022-10-07T18:02:15.364Z,15.98
2022-10-07T18:04:22.526Z,15.97
2022-10-07T18:06:30.164Z,15.94
2022-10-07T18:08:33.811Z,15.95
2022-10-07T18:10:38.068Z,15.93
2022-10-07T18:12:58.655Z,15.89
2022-10-07T18:15:19.802Z,15.84
2022-10-07T18:17:24.325Z,15.83
2022-10-07T18:19:29.347Z,15.83
2022-10-07T18:21:32.693Z,15.83
2022-10-07T18:23:36.090Z,15.83
2022-10-07T18:25:39.624Z,15.80
2022-10-07T18:27:43.454Z,15.79
2022-10-07T18:29:46.541Z,15.77
2022-10-07T18:31:50.761Z,15.76
2022-10-07T18:33:53.551Z,15.71
2022-10-07T18:36:01.459Z,15.72
2022-10-07T18:38:04.360Z,15.70
2022-10-07T18:40:08.116Z,15.70
2022-10-07T18:42:10.864Z,15.69
2022-10-07T18:44:13.869Z,15.69
2022-10-07T18:46:18.944Z,15.69
2022-10-07T18:48:23.068Z,15.68
2022-10-07T18:50:29.048Z,15.69
2022-10-07T18:52:34.182Z,15.67
2022-10-07T18:54:37.026Z,15.65
2022-10-07T18:56:41.407Z,15.65
2022-10-07T18:58:45.318Z,15.50
2022-10-07T19:00:48.185Z,15.54
2022-10-07T19:02:51.121Z,15.60
2022-10-07T19:04:56.131Z,15.60
2022-10-07T19:06:58.901Z,15.57
2022-10-07T19:09:03.783Z,15.54
2022-10-07T19:11:07.650Z,15.53
2022-10-07T19:13:30.289Z,15.53
2022-10-07T19:15:33.821Z,15.50
2022-10-07T19:17:36.611Z,15.50
2022-10-07T19:19:41.170Z,15.52
2022-10-07T19:21:46.196Z,15.41
2022-10-07T19:23:50.131Z,15.31
2022-10-07T19:25:54.361Z,15.31
2022-10-07T19:27:57.111Z,15.32
2022-10-07T19:30:00.914Z,15.34
2022-10-07T19:32:08.068Z,15.37
2022-10-07T19:34:14.317Z,15.40
2022-10-07T19:36:18.493Z,15.44
2022-10-07T19:38:24.380Z,15.44
2022-10-07T19:40:27.143Z,15.45
2022-10-07T19:42:29.974Z,15.46
2022-10-07T19:44:33.476Z,15.45
2022-10-07T19:46:36.612Z,15.46
2022-10-07T19:48:40.272Z,15.46
2022-10-07T19:50:43.158Z,15.47
2022-10-07T19:52:46.662Z,15.49
2022-10-07T19:54:51.365Z,15.50
2022-10-07T19:56:54.113Z,15.48
2022-10-07T19:58:58.629Z,15.49
2022-10-07T20:01:06.391Z,15.46
2022-10-07T20:03:09.626Z,15.43
2022-10-07T20:05:12.340Z,15.44
2022-10-07T20:07:15.170Z,15.44
2022-10-07T20:09:20.071Z,15.45
2022-10-07T20:11:24.605Z,15.44
2022-10-07T20:13:27.373Z,15.43
2022-10-07T20:15:30.142Z,15.43
2022-10-07T20:17:32.894Z,15.43
2022-10-07T20:19:35.599Z,15.43
2022-10-07T20:21:40.201Z,15.41
2022-10-07T20:23:43.882Z,15.28
2022-10-07T20:25:46.676Z,15.33
2022-10-07T20:27:50.919Z,15.36
2022-10-07T20:29:59.774Z,15.36
2022-10-07T20:32:02.582Z,15.39
2022-10-07T20:34:06.805Z,15.42
2022-10-07T20:36:10.972Z,15.39
2022-10-07T20:38:13.716Z,15.38
2022-10-07T20:40:34.259Z,15.39
2022-10-07T20:42:36.021Z,15.40
2022-10-07T20:44:40.346Z,15.41
2022-10-07T20:46:43.124Z,15.40
2022-10-07T20:48:50.383Z,15.39
2022-10-07T20:50:53.781Z,15.38
2022-10-07T20:52:56.565Z,15.36
2022-10-07T20:54:59.594Z,15.38
2022-10-07T20:57:02.443Z,15.38
2022-10-07T20:59:05.246Z,15.35
2022-10-07T21:01:09.724Z,15.36
2022-10-07T21:03:12.579Z,15.33
2022-10-07T21:05:15.336Z,15.32
2022-10-07T21:07:19.356Z,15.32
2022-10-07T21:09:22.198Z,15.31
2022-10-07T21:11:25.598Z,15.33
2022-10-07T21:13:28.465Z,15.32
2022-10-07T21:15:31.277Z,15.33
2022-10-07T21:17:35.839Z,15.32
2022-10-07T21:19:38.677Z,15.30
2022-10-07T21:21:41.603Z,15.27
2022-10-07T21:23:44.575Z,15.27
2022-10-07T21:25:48.020Z,15.23
2022-10-07T21:27:50.764Z,15.23
2022-10-07T21:29:53.461Z,15.20
2022-10-07T21:31:56.236Z,15.17
2022-10-07T21:34:01.576Z,15.17
2022-10-07T21:36:06.802Z,15.15
2022-10-07T21:38:09.675Z,15.12
2022-10-07T21:40:12.400Z,15.09
2022-10-07T21:42:16.442Z,15.07
2022-10-07T21:44:19.535Z,15.01
2022-10-07T21:46:23.796Z,15.00
2022-10-07T21:48:28.249Z,14.98
2022-10-07T21:50:32.394Z,14.93
2022-10-07T21:52:35.296Z,14.90
2022-10-07T21:54:38.367Z,14.89
2022-10-07T21:56:43.432Z,14.86
2022-10-07T21:58:47.011Z,14.84
2022-10-07T22:00:49.793Z,14.82
2022-10-07T22:02:52.745Z,14.84
2022-10-07T22:04:56.692Z,14.82
2022-10-07T22:07:18.472Z,14.82
2022-10-07T22:09:21.434Z,14.78
2022-10-07T22:11:24.311Z,14.77
2022-10-07T22:13:27.042Z,14.77
2022-10-07T22:15:29.882Z,14.76
2022-10-07T22:17:34.750Z,14.75
2022-10-07T22:19:37.497Z,14.73
2022-10-07T22:21:41.476Z,14.72
2022-10-07T22:23:45.826Z,14.72
2022-10-07T22:25:48.782Z,14.72
2022-10-07T22:27:51.594Z,14.76
2022-10-07T22:29:54.329Z,14.77
2022-10-07T22:31:57.876Z,14.80
2022-10-07T22:34:01.225Z,14.80
2022-10-07T22:36:03.292Z,14.79
2022-10-07T22:38:06.016Z,14.81
2022-10-07T22:40:10.970Z,14.83
2022-10-07T22:42:13.745Z,14.83
2022-10-07T22:44:16.477Z,14.85
2022-10-07T22:46:21.131Z,14.87
2022-10-07T22:48:23.803Z,14.71
2022-10-07T22:50:26.567Z,14.75
2022-10-07T22:52:30.251Z,14.81
2022-10-07T22:54:32.988Z,14.83
2022-10-07T22:56:37.091Z,14.87
2022-10-07T22:58:40.506Z,14.85
2022-10-07T23:00:43.246Z,14.87
2022-10-07T23:02:46.485Z,14.91
2022-10-07T23:04:49.539Z,14.93
2022-10-07T23:06:52.882Z,14.95
2022-10-07T23:08:56.260Z,14.97
2022-10-07T23:10:59.948Z,14.93
2022-10-07T23:13:04.060Z,14.94
2022-10-07T23:15:08.025Z,14.89
2022-10-07T23:17:11.218Z,14.89
2022-10-07T23:19:14.161Z,14.94
2022-10-07T23:21:19.073Z,14.96
2022-10-07T23:23:21.780Z,14.96
2022-10-07T23:25:26.235Z,14.99
2022-10-07T23:27:29.032Z,14.99
2022-10-07T23:29:33.562Z,15.01
2022-10-07T23:31:36.397Z,15.05
2022-10-07T23:33:39.469Z,15.10
2022-10-07T23:35:42.578Z,15.11
2022-10-07T23:37:45.271Z,15.12
2022-10-07T23:39:49.155Z,15.13
2022-10-07T23:41:51.887Z,15.11
2022-10-07T23:43:57.242Z,15.12
2022-10-07T23:46:02.029Z,15.13
2022-10-07T23:48:04.910Z,15.12
2022-10-07T23:50:09.181Z,15.13
2022-10-07T23:52:12.835Z,15.13
2022-10-07T23:54:15.646Z,15.12
2022-10-07T23:56:19.123Z,15.12
2022-10-07T23:58:23.708Z,15.13
